createdAt,value
2022-11-24T00:01:04.115Z,95349.63
2022-11-24T00:03:33.136Z,95343.72
2022-11-24T00:06:04.413Z,95352.47
2022-11-24T00:08:31.925Z,95360.19
2022-11-24T00:11:04.547Z,95365.22
2022-11-24T00:13:32.088Z,95361.78
2022-11-24T00:16:06.465Z,95368.09
2022-11-24T00:18:35.413Z,95364.84
2022-11-24T00:21:03.072Z,95370.75
2022-11-24T00:23:30.642Z,95372.94
2022-11-24T00:26:05.398Z,95376.97
2022-11-24T00:28:33.723Z,95378.44
2022-11-24T00:31:01.557Z,95381.81
2022-11-24T00:33:29.208Z,95379.81
2022-11-24T00:35:59.348Z,95391.28
2022-11-24T00:38:27.365Z,95391.03
2022-11-24T00:40:54.901Z,95385.50
2022-11-24T00:43:22.601Z,95390.97
2022-11-24T00:45:50.190Z,95389.25
2022-11-24T00:48:17.780Z,95392.88
2022-11-24T00:50:45.329Z,95403.78
2022-11-24T00:53:14.193Z,95401.16
2022-11-24T00:55:41.713Z,95415.66
2022-11-24T00:58:09.215Z,95408.09
2022-11-24T01:00:36.753Z,95407.00
2022-11-24T01:03:04.354Z,95410.19
2022-11-24T01:05:31.956Z,95409.72
2022-11-24T01:07:59.466Z,95410.63
2022-11-24T01:10:28.422Z,95422.00
2022-11-24T01:12:55.968Z,95427.69
2022-11-24T01:15:23.505Z,95435.34
2022-11-24T01:17:51.087Z,95444.50
2022-11-24T01:20:18.851Z,95445.88
2022-11-24T01:22:48.939Z,95451.88
2022-11-24T01:25:17.038Z,95453.16
2022-11-24T01:27:45.971Z,95459.34
2022-11-24T01:30:13.555Z,95456.25
2022-11-24T01:32:41.101Z,95460.47
2022-11-24T01:35:09.943Z,95468.91
2022-11-24T01:37:37.479Z,95464.25
2022-11-24T01:40:05.855Z,95474.19
2022-11-24T01:42:41.047Z,95466.38
2022-11-24T01:45:33.295Z,95485.59
2022-11-24T01:48:05.489Z,95480.38
2022-11-24T01:50:35.090Z,95487.34
2022-11-24T01:53:03.046Z,95491.69
2022-11-24T01:55:35.542Z,95496.06
2022-11-24T01:58:06.279Z,95503.13
2022-11-24T02:00:37.220Z,95496.91
2022-11-24T02:03:05.081Z,95515.41
2022-11-24T02:05:40.144Z,95525.44
2022-11-24T02:08:15.752Z,95509.63
2022-11-24T02:10:45.304Z,95516.78
2022-11-24T02:13:14.000Z,95516.50
2022-11-24T02:15:43.164Z,95526.31
2022-11-24T02:18:11.024Z,95523.34
2022-11-24T02:20:38.762Z,95527.50
2022-11-24T02:23:16.415Z,95533.75
2022-11-24T02:25:53.784Z,95528.38
2022-11-24T02:28:27.813Z,95539.69
2022-11-24T02:30:55.562Z,95541.31
2022-11-24T02:33:25.222Z,95548.81
2022-11-24T02:35:53.053Z,95541.50
2022-11-24T02:38:20.596Z,95541.88
2022-11-24T02:40:49.898Z,95541.44
2022-11-24T02:43:22.304Z,95543.75
2022-11-24T02:45:51.231Z,95541.88
2022-11-24T02:48:19.627Z,95541.91
2022-11-24T02:50:47.199Z,95548.69
2022-11-24T02:53:14.800Z,95548.72
2022-11-24T02:55:42.336Z,95560.59
2022-11-24T02:58:10.043Z,95550.19
2022-11-24T03:00:37.584Z,95550.13
2022-11-24T03:03:06.642Z,95554.31
2022-11-24T03:05:34.260Z,95551.00
2022-11-24T03:08:01.788Z,95553.81
2022-11-24T03:10:29.464Z,95561.41
2022-11-24T03:12:57.344Z,95562.97
2022-11-24T03:15:25.123Z,95559.50
2022-11-24T03:17:56.385Z,95568.44
2022-11-24T03:20:25.963Z,95573.88
2022-11-24T03:22:53.912Z,95583.88
2022-11-24T03:25:22.031Z,95576.41
2022-11-24T03:27:49.564Z,95574.03
2022-11-24T03:30:17.732Z,95569.06
2022-11-24T03:32:45.268Z,95567.22
2022-11-24T03:35:13.063Z,95575.66
2022-11-24T03:37:41.972Z,95569.41
2022-11-24T03:40:10.528Z,95574.84
2022-11-24T03:42:38.059Z,95578.50
2022-11-24T03:47:54.018Z,95587.91
2022-11-24T03:50:21.554Z,95591.03
2022-11-24T03:52:50.450Z,95595.72
2022-11-24T03:55:18.005Z,95599.34
2022-11-24T03:57:45.617Z,95610.25
2022-11-24T04:00:13.978Z,95594.84
2022-11-24T04:02:41.572Z,95600.72
2022-11-24T04:05:09.632Z,95601.78
2022-11-24T04:07:37.314Z,95608.94
2022-11-24T04:10:07.817Z,95607.53
2022-11-24T04:12:46.644Z,95603.75
2022-11-24T04:15:16.451Z,95601.41
2022-11-24T04:17:44.376Z,95603.09
2022-11-24T04:20:13.318Z,95601.75
2022-11-24T04:22:41.201Z,95618.34
2022-11-24T04:25:11.275Z,95629.13
2022-11-24T04:27:39.488Z,95627.53
2022-11-24T04:30:08.477Z,95607.66
2022-11-24T04:32:36.287Z,95608.06
2022-11-24T04:35:04.162Z,95616.19
2022-11-24T04:37:31.711Z,95613.00
2022-11-24T04:39:59.212Z,95626.22
2022-11-24T04:42:28.110Z,95638.78
2022-11-24T04:44:55.680Z,95638.13
2022-11-24T04:47:25.195Z,95638.63
2022-11-24T04:49:53.178Z,95630.84
2022-11-24T04:52:22.883Z,95647.22
2022-11-24T04:54:50.741Z,95644.72
2022-11-24T04:57:19.689Z,95649.34
2022-11-24T04:59:48.622Z,95648.81
2022-11-24T05:02:16.195Z,95660.69
2022-11-24T05:04:43.811Z,95650.00
2022-11-24T05:07:17.971Z,95664.22
2022-11-24T05:10:04.189Z,95669.00
2022-11-24T05:12:31.957Z,95663.88
2022-11-24T05:15:01.736Z,95667.53
2022-11-24T05:17:30.804Z,95669.53
2022-11-24T05:19:58.518Z,95671.50
2022-11-24T05:22:26.895Z,95673.47
2022-11-24T05:24:54.507Z,95693.16
2022-11-24T05:27:22.228Z,95684.34
2022-11-24T05:29:50.042Z,95693.47
2022-11-24T05:32:18.969Z,95689.44
2022-11-24T05:34:46.510Z,95693.31
2022-11-24T05:37:14.150Z,95702.50
2022-11-24T05:39:41.683Z,95701.88
2022-11-24T05:42:23.498Z,95697.28
2022-11-24T05:44:51.046Z,95702.38
2022-11-24T05:47:20.605Z,95699.63
2022-11-24T05:49:48.444Z,95705.38
2022-11-24T05:52:16.141Z,95718.69
2022-11-24T05:54:43.816Z,95731.06
2022-11-24T05:57:11.386Z,95738.53
2022-11-24T05:59:38.919Z,95740.78
2022-11-24T06:02:06.589Z,95738.47
2022-11-24T06:04:35.720Z,95748.34
2022-11-24T06:07:03.602Z,95754.88
2022-11-24T06:09:31.126Z,95760.88
2022-11-24T06:11:58.615Z,95768.03
2022-11-24T06:14:26.116Z,95767.84
2022-11-24T06:16:53.762Z,95756.34
2022-11-24T06:19:21.309Z,95774.69
2022-11-24T06:21:50.196Z,95760.97
2022-11-24T06:24:17.735Z,95754.75
2022-11-24T06:26:45.297Z,95770.97
2022-11-24T06:29:12.823Z,95779.63
2022-11-24T06:31:40.389Z,95779.69
2022-11-24T06:34:08.383Z,95773.72
2022-11-24T06:36:35.904Z,95785.69
2022-11-24T06:39:05.664Z,95780.94
2022-11-24T06:41:33.564Z,95773.94
2022-11-24T06:44:03.956Z,95779.19
2022-11-24T06:46:31.512Z,95771.94
2022-11-24T06:49:00.577Z,95785.34
2022-11-24T06:51:28.341Z,95783.59
2022-11-24T06:53:55.903Z,95782.13
2022-11-24T06:56:24.768Z,95787.53
2022-11-24T06:58:53.860Z,95787.38
2022-11-24T07:01:23.821Z,95793.31
2022-11-24T07:03:52.194Z,95791.56
2022-11-24T07:06:20.961Z,95782.06
2022-11-24T07:08:48.883Z,95789.47
2022-11-24T07:11:18.995Z,95792.41
2022-11-24T07:13:48.998Z,95788.94
2022-11-24T07:16:18.991Z,95786.16
2022-11-24T07:18:47.966Z,95788.88
2022-11-24T07:21:16.320Z,95789.59
2022-11-24T07:23:44.231Z,95785.94
2022-11-24T07:26:11.961Z,95789.56
2022-11-24T07:28:39.463Z,95789.16
2022-11-24T07:31:09.520Z,95787.81
2022-11-24T07:33:37.375Z,95792.38
2022-11-24T07:36:06.426Z,95798.81
2022-11-24T07:38:34.562Z,95800.50
2022-11-24T07:41:02.388Z,95808.91
2022-11-24T07:43:31.518Z,95809.25
2022-11-24T07:45:59.088Z,95809.44
2022-11-24T07:48:28.260Z,95815.06
2022-11-24T07:50:56.490Z,95814.84
2022-11-24T07:53:24.135Z,95822.69
2022-11-24T07:55:55.526Z,95826.66
2022-11-24T07:58:26.493Z,95817.22
2022-11-24T08:00:56.672Z,95818.66
2022-11-24T08:03:25.202Z,95819.97
2022-11-24T08:08:46.161Z,95821.34
2022-11-24T08:11:15.090Z,95823.34
2022-11-24T08:13:43.084Z,95822.69
2022-11-24T08:16:13.116Z,95819.34
2022-11-24T08:18:40.809Z,95818.50
2022-11-24T08:21:13.232Z,95812.75
2022-11-24T08:23:40.956Z,95823.63
2022-11-24T08:26:11.837Z,95817.56
2022-11-24T08:28:39.348Z,95829.09
2022-11-24T08:31:09.055Z,95820.66
2022-11-24T08:33:37.524Z,95824.94
2022-11-24T08:36:06.065Z,95828.63
2022-11-24T08:38:34.964Z,95836.22
2022-11-24T08:41:03.329Z,95831.47
2022-11-24T08:43:31.356Z,95827.41
2022-11-24T08:46:01.122Z,95823.34
2022-11-24T08:48:29.132Z,95829.28
2022-11-24T08:50:56.911Z,95829.59
2022-11-24T08:53:24.629Z,95830.41
2022-11-24T08:55:53.517Z,95834.00
2022-11-24T08:58:21.029Z,95832.13
2022-11-24T09:00:48.547Z,95834.00
2022-11-24T09:03:16.104Z,95833.53
2022-11-24T09:05:51.811Z,95834.53
2022-11-24T09:08:20.621Z,95839.09
2022-11-24T09:10:48.224Z,95834.47
2022-11-24T09:13:17.078Z,95829.56
2022-11-24T09:15:45.280Z,95830.84
2022-11-24T09:18:12.799Z,95834.06
2022-11-24T09:20:40.643Z,95837.19
2022-11-24T09:23:08.155Z,95834.06
2022-11-24T09:25:35.667Z,95841.63
2022-11-24T09:28:03.187Z,95843.50
2022-11-24T09:30:32.245Z,95850.81
2022-11-24T09:32:59.831Z,95855.75
2022-11-24T09:35:27.324Z,95860.97
2022-11-24T09:37:54.863Z,95851.59
2022-11-24T09:40:23.676Z,95860.50
2022-11-24T09:42:59.474Z,95867.16
2022-11-24T09:46:04.556Z,95850.13
2022-11-24T09:48:35.892Z,95858.06
2022-11-24T09:51:05.369Z,95847.34
2022-11-24T09:53:38.677Z,95853.78
2022-11-24T09:56:16.973Z,95855.41
2022-11-24T09:58:48.285Z,95849.09
2022-11-24T10:01:20.114Z,95857.38
2022-11-24T10:03:50.778Z,95855.41
2022-11-24T10:06:27.687Z,95847.97
2022-11-24T10:09:11.459Z,95849.47
2022-11-24T10:11:44.689Z,95846.16
2022-11-24T10:14:29.998Z,95853.88
2022-11-24T10:17:12.336Z,95849.09
2022-11-24T10:19:49.279Z,95857.59
2022-11-24T10:22:28.743Z,95864.72
2022-11-24T10:25:08.264Z,95854.94
2022-11-24T10:27:40.264Z,95858.09
2022-11-24T10:30:15.771Z,95860.56
2022-11-24T10:32:48.354Z,95869.00
2022-11-24T10:35:19.471Z,95877.88
2022-11-24T10:38:03.347Z,95878.00
2022-11-24T10:43:26.783Z,95890.06
2022-11-24T10:45:55.642Z,95895.13
2022-11-24T10:48:27.265Z,95890.81
2022-11-24T10:51:02.915Z,95888.50
2022-11-24T10:53:31.833Z,95893.25
2022-11-24T10:56:05.697Z,95887.25
2022-11-24T10:58:38.031Z,95887.69
2022-11-24T11:01:21.621Z,95887.03
2022-11-24T11:03:53.244Z,95895.25
2022-11-24T11:06:24.305Z,95885.28
2022-11-24T11:09:18.971Z,95893.91
2022-11-24T11:11:48.317Z,95893.72
2022-11-24T11:14:32.259Z,95896.09
2022-11-24T11:17:00.370Z,95879.78
2022-11-24T11:19:58.454Z,95886.09
2022-11-24T11:22:27.839Z,95892.59
2022-11-24T11:25:08.057Z,95896.69
2022-11-24T11:27:35.608Z,95897.56
2022-11-24T11:36:15.543Z,95910.38
2022-11-24T11:38:45.074Z,95900.88
2022-11-24T11:41:21.696Z,95901.09
2022-11-24T11:43:55.288Z,95906.13
2022-11-24T11:46:25.684Z,95905.75
2022-11-24T11:48:53.272Z,95907.66
2022-11-24T11:51:39.290Z,95891.53
2022-11-24T11:54:12.840Z,95903.84
2022-11-24T11:56:45.293Z,95907.59
2022-11-24T11:59:42.839Z,95899.97
2022-11-24T12:02:53.961Z,95895.78
2022-11-24T12:05:31.478Z,95903.63
2022-11-24T12:08:20.962Z,95906.00
2022-11-24T12:10:54.804Z,95904.59
2022-11-24T12:13:51.947Z,95918.63
2022-11-24T12:16:33.386Z,95920.03
2022-11-24T12:19:25.331Z,95915.38
2022-11-24T12:22:00.372Z,95917.75
2022-11-24T12:24:36.593Z,95920.09
2022-11-24T12:27:14.807Z,95914.75
2022-11-24T12:30:06.692Z,95921.09
2022-11-24T12:32:51.768Z,95907.66
2022-11-24T12:35:27.884Z,95918.72
2022-11-24T12:38:06.411Z,95920.78
2022-11-24T12:40:47.237Z,95920.72
2022-11-24T12:43:20.505Z,95916.41
2022-11-24T12:45:57.770Z,95925.94
2022-11-24T12:48:37.687Z,95923.22
2022-11-24T12:51:07.462Z,95924.63
2022-11-24T12:53:38.352Z,95924.72
2022-11-24T12:56:08.428Z,95919.38
2022-11-24T12:58:45.597Z,95921.09
2022-11-24T13:01:25.970Z,95927.53
2022-11-24T13:04:10.976Z,95925.50
2022-11-24T13:06:49.753Z,95923.31
2022-11-24T13:09:18.165Z,95922.44
2022-11-24T13:11:47.120Z,95924.06
2022-11-24T13:14:21.985Z,95922.75
2022-11-24T13:17:27.852Z,95933.09
2022-11-24T13:19:44.241Z,95940.88
2022-11-24T13:22:16.601Z,95944.00
2022-11-24T13:24:44.830Z,95943.81
2022-11-24T13:27:39.927Z,95943.22
2022-11-24T13:30:50.102Z,95947.69
2022-11-24T13:33:35.897Z,95948.91
2022-11-24T13:36:31.870Z,95969.81
2022-11-24T13:39:00.643Z,95966.50
2022-11-24T13:42:43.457Z,95966.34
2022-11-24T13:44:59.512Z,95950.94
2022-11-24T13:47:45.120Z,95955.00
2022-11-24T13:50:25.251Z,95956.97
2022-11-24T13:53:01.715Z,95963.44
2022-11-24T13:55:38.705Z,95964.88
2022-11-24T13:58:27.704Z,95972.28
2022-11-24T14:01:04.102Z,95972.88
2022-11-24T14:03:36.020Z,95968.63
2022-11-24T14:06:05.618Z,95965.69
2022-11-24T14:08:36.353Z,95967.06
2022-11-24T14:11:12.378Z,95971.00
2022-11-24T14:13:39.931Z,95980.22
2022-11-24T14:16:16.405Z,95984.84
2022-11-24T14:18:45.788Z,95979.22
2022-11-24T14:21:24.564Z,95980.88
2022-11-24T14:23:55.056Z,95982.72
2022-11-24T14:26:24.283Z,95990.53
2022-11-24T14:28:53.300Z,95982.22
2022-11-24T14:31:24.398Z,95990.88
2022-11-24T14:34:07.975Z,95990.28
2022-11-24T14:36:36.868Z,96002.53
2022-11-24T14:39:05.196Z,95999.41
2022-11-24T14:41:34.411Z,96013.00
2022-11-24T14:44:08.058Z,95997.50
2022-11-24T14:46:37.010Z,96009.34
2022-11-24T14:49:05.509Z,96005.84
2022-11-24T14:51:36.410Z,96016.09
2022-11-24T14:54:08.176Z,96012.16
2022-11-24T14:56:37.429Z,96018.25
2022-11-24T14:59:21.228Z,96025.84
2022-11-24T15:01:48.843Z,96027.69
2022-11-24T15:04:54.550Z,96033.16
2022-11-24T15:07:14.824Z,96033.00
2022-11-24T15:09:52.107Z,96020.19
2022-11-24T15:12:28.528Z,96024.34
2022-11-24T15:14:59.011Z,96029.97
2022-11-24T15:17:29.071Z,96031.59
2022-11-24T15:20:01.540Z,96031.25
2022-11-24T15:22:40.532Z,96038.38
2022-11-24T15:25:28.616Z,96030.94
2022-11-24T15:27:56.204Z,96034.53
2022-11-24T15:30:23.856Z,96039.13
2022-11-24T15:32:53.183Z,96046.56
2022-11-24T15:35:21.682Z,96044.19
2022-11-24T15:37:49.214Z,96043.06
2022-11-24T15:40:17.171Z,96053.00
2022-11-24T15:42:51.071Z,96051.69
2022-11-24T15:45:19.272Z,96056.59
2022-11-24T15:47:47.011Z,96062.28
2022-11-24T15:50:15.814Z,96062.13
2022-11-24T15:52:43.904Z,96058.97
2022-11-24T15:55:18.441Z,96072.91
2022-11-24T15:57:47.984Z,96067.91
2022-11-24T16:00:18.266Z,96065.16
2022-11-24T16:02:45.884Z,96076.31
2022-11-24T16:05:14.561Z,96086.22
2022-11-24T16:07:42.184Z,96089.16
2022-11-24T16:10:20.192Z,96091.41
2022-11-24T16:12:49.048Z,96089.47
2022-11-24T16:15:16.819Z,96097.16
2022-11-24T16:17:44.433Z,96100.09
2022-11-24T16:20:12.349Z,96101.25
2022-11-24T16:22:39.959Z,96099.63
2022-11-24T16:25:08.347Z,96103.44
2022-11-24T16:27:35.928Z,96111.09
2022-11-24T16:30:05.524Z,96106.94
2022-11-24T16:32:33.076Z,96110.25
2022-11-24T16:35:00.731Z,96109.72
2022-11-24T16:37:28.283Z,96110.44
2022-11-24T16:39:55.781Z,96110.28
2022-11-24T16:42:23.316Z,96113.81
2022-11-24T16:44:51.919Z,96118.84
2022-11-24T16:47:21.083Z,96118.16
2022-11-24T16:49:48.671Z,96120.41
2022-11-24T16:52:16.447Z,96118.91
2022-11-24T16:54:46.128Z,96116.25
2022-11-24T16:57:15.113Z,96126.97
2022-11-24T16:59:45.835Z,96114.41
2022-11-24T17:02:14.027Z,96124.56
2022-11-24T17:04:42.998Z,96124.69
2022-11-24T17:07:10.591Z,96119.56
2022-11-24T17:09:40.722Z,96125.69
2022-11-24T17:12:08.544Z,96127.84
2022-11-24T17:14:36.949Z,96128.16
2022-11-24T17:17:04.772Z,96136.16
2022-11-24T17:19:32.635Z,96138.13
2022-11-24T17:22:01.536Z,96143.22
2022-11-24T17:24:29.094Z,96149.88
2022-11-24T17:26:56.614Z,96147.59
2022-11-24T17:29:24.394Z,96150.13
2022-11-24T17:31:51.974Z,96160.38
2022-11-24T17:34:19.893Z,96158.00
2022-11-24T17:36:47.407Z,96151.13
2022-11-24T17:39:19.140Z,96157.16
2022-11-24T17:41:50.834Z,96156.09
2022-11-24T17:44:18.364Z,96155.88
2022-11-24T17:46:45.892Z,96160.09
2022-11-24T17:49:14.344Z,96160.09
2022-11-24T17:51:41.872Z,96160.00
2022-11-24T17:54:39.177Z,96159.50
2022-11-24T17:56:58.480Z,96152.69
2022-11-24T17:59:26.006Z,96160.66
2022-11-24T18:01:53.609Z,96163.81
2022-11-24T18:04:21.262Z,96165.19
2022-11-24T18:06:48.786Z,96165.03
2022-11-24T18:09:16.348Z,96162.47
2022-11-24T18:11:44.187Z,96159.13
2022-11-24T18:14:13.080Z,96161.63
2022-11-24T18:16:40.634Z,96163.72
2022-11-24T18:19:10.903Z,96163.47
2022-11-24T18:21:39.961Z,96163.72
2022-11-24T18:24:08.211Z,96170.34
2022-11-24T18:26:35.750Z,96168.25
2022-11-24T18:29:03.447Z,96171.09
2022-11-24T18:31:34.204Z,96176.75
2022-11-24T18:34:02.455Z,96177.59
2022-11-24T18:36:30.926Z,96165.94
2022-11-24T18:38:58.672Z,96179.50
2022-11-24T18:41:27.050Z,96173.22
2022-11-24T18:43:54.583Z,96170.78
2022-11-24T18:46:22.277Z,96169.50
2022-11-24T18:48:51.928Z,96168.25
2022-11-24T18:51:19.583Z,96174.72
2022-11-24T18:53:47.795Z,96174.63
2022-11-24T18:56:16.749Z,96174.56
2022-11-24T18:58:45.116Z,96180.81
2022-11-24T19:01:14.569Z,96178.47
2022-11-24T19:03:48.785Z,96171.38
2022-11-24T19:06:20.008Z,96173.09
2022-11-24T19:08:48.732Z,96178.88
2022-11-24T19:11:20.350Z,96179.09
2022-11-24T19:13:49.027Z,96185.75
2022-11-24T19:16:17.787Z,96178.84
2022-11-24T19:18:48.949Z,96181.56
2022-11-24T19:21:22.777Z,96180.66
2022-11-24T19:23:50.955Z,96185.72
2022-11-24T19:26:18.797Z,96189.13
2022-11-24T19:28:46.483Z,96188.16
2022-11-24T19:31:15.796Z,96188.00
2022-11-24T19:33:43.510Z,96190.09
2022-11-24T19:36:13.842Z,96189.50
2022-11-24T19:38:49.785Z,96193.38
2022-11-24T19:41:19.255Z,96191.41
2022-11-24T19:43:47.292Z,96186.78
2022-11-24T19:46:17.400Z,96189.13
2022-11-24T19:48:47.156Z,96198.50
2022-11-24T19:51:16.688Z,96196.69
2022-11-24T19:53:45.898Z,96196.16
2022-11-24T19:56:15.346Z,96191.84
2022-11-24T19:58:43.611Z,96192.41
2022-11-24T20:01:14.074Z,96187.84
2022-11-24T20:03:43.581Z,96192.06
2022-11-24T20:06:12.691Z,96205.38
2022-11-24T20:08:42.426Z,96205.16
2022-11-24T20:11:13.127Z,96197.72
2022-11-24T20:13:42.579Z,96198.19
2022-11-24T20:16:12.018Z,96198.16
2022-11-24T20:18:42.257Z,96187.97
2022-11-24T20:21:11.650Z,96206.75
2022-11-24T20:23:39.926Z,96198.94
2022-11-24T20:26:09.228Z,96197.97
2022-11-24T20:28:38.690Z,96202.31
2022-11-24T20:31:07.913Z,96204.16
2022-11-24T20:33:36.808Z,96204.69
2022-11-24T20:36:05.934Z,96202.03
2022-11-24T20:38:34.416Z,96210.31
2022-11-24T20:41:08.825Z,96204.69
2022-11-24T20:43:39.070Z,96196.69
2022-11-24T20:46:09.594Z,96210.81
2022-11-24T20:48:37.677Z,96208.09
2022-11-24T20:51:06.330Z,96213.22
2022-11-24T20:53:34.176Z,96205.75
2022-11-24T20:56:06.232Z,96206.69
2022-11-24T20:58:35.043Z,96209.56
2022-11-24T21:01:09.765Z,96205.09
2022-11-24T21:03:42.742Z,96204.09
2022-11-24T21:06:11.196Z,96205.22
2022-11-24T21:08:40.130Z,96202.50
2022-11-24T21:11:10.266Z,96205.00
2022-11-24T21:13:39.042Z,96209.53
2022-11-24T21:16:15.470Z,96217.31
2022-11-24T21:18:44.433Z,96211.09
2022-11-24T21:21:12.991Z,96210.97
2022-11-24T21:23:40.837Z,96206.50
2022-11-24T21:26:16.335Z,96210.69
2022-11-24T21:28:45.478Z,96209.69
2022-11-24T21:31:17.255Z,96217.31
2022-11-24T21:33:47.356Z,96208.72
2022-11-24T21:36:17.735Z,96207.13
2022-11-24T21:38:50.223Z,96211.50
2022-11-24T21:41:18.435Z,96210.34
2022-11-24T21:43:46.440Z,96208.75
2022-11-24T21:46:15.501Z,96210.56
2022-11-24T21:48:43.662Z,96222.13
2022-11-24T21:51:13.984Z,96220.75
2022-11-24T21:53:41.748Z,96221.34
2022-11-24T21:56:12.869Z,96218.00
2022-11-24T21:58:45.509Z,96219.13
2022-11-24T22:01:15.374Z,96227.66
2022-11-24T22:03:43.166Z,96221.69
2022-11-24T22:06:10.956Z,96222.97
2022-11-24T22:08:38.656Z,96220.34
2022-11-24T22:11:08.467Z,96222.84
2022-11-24T22:13:36.268Z,96225.94
2022-11-24T22:16:05.876Z,96227.03
2022-11-24T22:18:36.872Z,96219.25
2022-11-24T22:21:05.677Z,96217.03
2022-11-24T22:23:35.970Z,96221.22
2022-11-24T22:26:04.761Z,96225.63
2022-11-24T22:28:33.491Z,96221.63
2022-11-24T22:31:04.678Z,96226.91
2022-11-24T22:33:32.214Z,96219.16
2022-11-24T22:36:02.264Z,96220.22
2022-11-24T22:38:31.104Z,96215.78
2022-11-24T22:41:02.543Z,96221.59
2022-11-24T22:43:32.541Z,96231.41
2022-11-24T22:46:04.328Z,96229.75
2022-11-24T22:48:32.112Z,96235.97
2022-11-24T22:51:05.486Z,96230.09
2022-11-24T22:53:33.464Z,96232.72
2022-11-24T22:56:04.809Z,96236.44
2022-11-24T22:58:33.243Z,96233.75
2022-11-24T23:01:05.064Z,96228.91
2022-11-24T23:03:35.645Z,96230.28
2022-11-24T23:06:06.124Z,96227.75
2022-11-24T23:08:34.872Z,96220.38
2022-11-24T23:11:03.592Z,96230.59
2022-11-24T23:13:31.584Z,96224.22
2022-11-24T23:16:02.993Z,96214.41
2022-11-24T23:18:30.892Z,96210.38
2022-11-24T23:21:04.529Z,96217.81
2022-11-24T23:23:33.692Z,96212.75
2022-11-24T23:26:01.741Z,96209.66
2022-11-24T23:28:29.375Z,96199.28
2022-11-24T23:31:01.126Z,96200.31
2022-11-24T23:33:28.692Z,96198.06
2022-11-24T23:35:56.220Z,96202.50
2022-11-24T23:38:28.503Z,96203.13
2022-11-24T23:40:57.617Z,96202.06
2022-11-24T23:43:25.149Z,96207.91
2022-11-24T23:45:53.261Z,96193.16
2022-11-24T23:48:20.835Z,96196.53
2022-11-24T23:50:48.463Z,96191.22
2022-11-24T23:53:15.992Z,96193.59
2022-11-24T23:55:43.496Z,96192.31
2022-11-24T23:58:12.697Z,96192.19
